Time;durP1;ratioP1;P1;durP2;ratioP2;P2;SDS_P1;SDS_P2;PMS_P1;PMS_P2;Temp;Humidity;BMP_temperature;BMP_pressure;BME280_temperature;BME280_humidity;BME280_pressure;Samples;Min_cycle;Max_cycle;Signal;HPM_P1;HPM_P2
2021/05/24 00:02:31;;;;;;;2.60;2.40;;;12.90;83.90;;;;;;10435570;28;20791;-77
2021/05/24 00:07:33;;;;;;;3.00;2.73;;;12.90;82.80;;;;;;10450556;28;20212;-78
2021/05/24 00:12:36;;;;;;;2.60;2.40;;;12.80;84.20;;;;;;10452979;28;20256;-78
2021/05/24 00:17:37;;;;;;;2.30;2.10;;;12.80;82.10;;;;;;10473077;28;20243;-77
2021/05/24 00:22:39;;;;;;;1.87;1.67;;;12.80;82.20;;;;;;10465661;28;20379;-78
2021/05/24 00:27:42;;;;;;;2.23;1.50;;;12.70;81.60;;;;;;10432696;28;20244;-78
2021/05/24 00:32:44;;;;;;;1.93;1.80;;;12.70;81.40;;;;;;10450525;28;20225;-78
2021/05/24 00:37:45;;;;;;;1.90;1.77;;;12.60;83.40;;;;;;10450670;28;20316;-78
2021/05/24 00:42:48;;;;;;;1.90;1.80;;;12.50;83.10;;;;;;10449565;28;20229;-79
2021/05/24 00:47:50;;;;;;;1.97;1.77;;;12.50;83.40;;;;;;10450704;28;20232;-77
2021/05/24 00:52:52;;;;;;;3.30;2.10;;;12.50;83.80;;;;;;10452067;28;20331;-78
2021/05/24 00:57:54;;;;;;;3.43;2.70;;;12.50;82.80;;;;;;10450818;28;20225;-79
2021/05/24 01:02:57;;;;;;;2.77;2.57;;;12.40;82.30;;;;;;10439449;28;20234;-77
2021/05/24 01:07:59;;;;;;;3.00;2.63;;;12.40;84.00;;;;;;10452040;28;20276;-78
2021/05/24 01:13:04;;;;;;;3.00;2.70;;;12.40;83.90;;;;;;10449951;28;20327;-79
2021/05/24 01:18:06;;;;;;;2.43;2.23;;;12.50;81.90;;;;;;10453138;28;20251;-78
2021/05/24 01:23:11;;;;;;;2.30;2.20;;;12.50;82.10;;;;;;10457361;28;20240;-77
2021/05/24 01:28:16;;;;;;;2.07;1.97;;;12.40;82.90;;;;;;10455746;28;20556;-79
2021/05/24 01:33:18;;;;;;;2.20;2.00;;;12.40;83.20;;;;;;10456281;28;20309;-78
2021/05/24 01:38:20;;;;;;;1.80;1.70;;;12.40;83.20;;;;;;10457039;28;20235;-78
2021/05/24 01:43:22;;;;;;;1.97;1.87;;;12.30;83.30;;;;;;10456764;28;20225;-78
2021/05/24 01:48:24;;;;;;;2.70;1.90;;;12.30;83.40;;;;;;10449674;28;20614;-77
2021/05/24 01:53:27;;;;;;;3.67;2.07;;;12.20;84.00;;;;;;10450579;28;20200;-77
2021/05/24 01:58:30;;;;;;;3.73;2.20;;;12.10;82.90;;;;;;10457785;28;20221;-77
2021/05/24 02:03:32;;;;;;;2.30;2.10;;;11.90;84.00;;;;;;10457264;28;20220;-77
2021/05/24 02:08:35;;;;;;;1.80;1.70;;;11.80;85.40;;;;;;10456772;28;20217;-78
2021/05/24 02:13:36;;;;;;;2.93;2.10;;;11.70;84.40;;;;;;10453947;28;20284;-77
2021/05/24 02:18:38;;;;;;;2.30;2.10;;;11.70;84.60;;;;;;10458929;28;20217;-79
2021/05/24 02:23:40;;;;;;;2.77;2.57;;;11.60;84.80;;;;;;10463465;28;20204;-77
2021/05/24 02:28:42;;;;;;;3.97;2.10;;;11.60;85.50;;;;;;10453995;28;20197;-77
2021/05/24 02:33:43;;;;;;;2.10;1.90;;;11.50;86.00;;;;;;10454341;28;20209;-77
2021/05/24 02:38:46;;;;;;;2.90;2.70;;;11.50;86.90;;;;;;10454580;28;20358;-77
2021/05/24 02:43:47;;;;;;;2.00;1.90;;;11.50;86.40;;;;;;10455237;28;20322;-77
2021/05/24 02:48:49;;;;;;;2.03;1.93;;;11.60;85.60;;;;;;10448939;28;20209;-76
2021/05/24 02:53:51;;;;;;;1.93;1.83;;;11.60;85.90;;;;;;10456599;28;20205;-78
2021/05/24 02:58:53;;;;;;;2.27;2.07;;;11.50;86.70;;;;;;10453942;28;20247;-76
2021/05/24 03:03:55;;;;;;;2.47;2.27;;;11.50;86.80;;;;;;10454500;28;20616;-78
2021/05/24 03:08:58;;;;;;;2.00;1.90;;;11.50;87.90;;;;;;10447085;28;20819;-79
2021/05/24 03:14:00;;;;;;;2.37;2.17;;;11.50;87.00;;;;;;10452057;28;20265;-77
2021/05/24 03:19:02;;;;;;;1.90;1.80;;;11.60;86.30;;;;;;10454645;28;20224;-77
2021/05/24 03:24:05;;;;;;;2.50;1.80;;;11.60;87.10;;;;;;10448031;28;20643;-78
2021/05/24 03:29:07;;;;;;;2.43;2.23;;;11.60;87.30;;;;;;10453710;28;20221;-77
2021/05/24 03:34:09;;;;;;;3.20;3.00;;;11.60;87.50;;;;;;10440395;28;20288;-77
2021/05/24 03:39:11;;;;;;;4.10;3.80;;;11.50;88.30;;;;;;10453798;28;20696;-78
2021/05/24 03:44:13;;;;;;;2.93;2.53;;;11.50;87.30;;;;;;10454414;28;20294;-78
2021/05/24 03:49:14;;;;;;;3.03;2.83;;;11.50;87.00;;;;;;10453333;28;20217;-76
2021/05/24 03:54:17;;;;;;;2.67;2.53;;;11.40;88.00;;;;;;10454892;28;20255;-78
2021/05/24 03:59:18;;;;;;;3.10;2.80;;;11.40;89.10;;;;;;10453418;28;20224;-79
2021/05/24 04:04:20;;;;;;;2.37;2.27;;;11.40;88.40;;;;;;10455904;28;20227;-78
2021/05/24 04:09:23;;;;;;;1.80;1.70;;;11.50;88.60;;;;;;10461678;28;20767;-79
2021/05/24 04:14:25;;;;;;;1.83;1.73;;;11.50;88.20;;;;;;10440524;28;20212;-79
2021/05/24 04:19:26;;;;;;;1.90;1.70;;;11.50;88.60;;;;;;10457877;28;20228;-78
2021/05/24 04:24:29;;;;;;;2.40;2.00;;;11.50;88.20;;;;;;10455227;28;20205;-78
2021/05/24 04:29:31;;;;;;;2.13;1.63;;;11.60;88.40;;;;;;10456552;28;20316;-78
2021/05/24 04:34:32;;;;;;;2.13;1.97;;;11.60;88.10;;;;;;10454839;28;20229;-79
2021/05/24 04:39:35;;;;;;;3.23;2.80;;;11.60;88.30;;;;;;10453191;28;20232;-78
2021/05/24 04:44:36;;;;;;;2.20;2.10;;;11.70;88.40;;;;;;10453796;28;20201;-77
2021/05/24 04:49:38;;;;;;;2.30;2.10;;;11.80;88.70;;;;;;10452139;28;20692;-78
2021/05/24 04:54:40;;;;;;;2.17;2.07;;;11.80;88.20;;;;;;10459004;28;20218;-77
2021/05/24 04:59:42;;;;;;;2.50;2.30;;;11.90;87.00;;;;;;10477834;28;20291;-78
2021/05/24 05:04:44;;;;;;;2.50;2.03;;;11.90;87.30;;;;;;10452558;28;20268;-79
2021/05/24 05:09:47;;;;;;;1.70;1.60;;;11.90;87.80;;;;;;10467593;28;20213;-78
2021/05/24 05:14:48;;;;;;;1.60;1.50;;;12.10;85.10;;;;;;10470125;28;20201;-79
2021/05/24 05:19:50;;;;;;;3.10;1.80;;;12.20;86.10;;;;;;10463982;28;20224;-79
2021/05/24 05:24:52;;;;;;;2.30;2.10;;;12.40;86.90;;;;;;10445368;28;20201;-79
2021/05/24 05:29:54;;;;;;;1.70;1.60;;;12.50;87.80;;;;;;10461638;28;20248;-79
2021/05/24 05:34:55;;;;;;;1.67;1.57;;;12.60;87.10;;;;;;10463276;28;20215;-79
2021/05/24 05:39:58;;;;;;;1.80;1.70;;;12.70;88.20;;;;;;10463395;28;20233;-78
2021/05/24 05:44:59;;;;;;;3.23;1.90;;;12.90;86.50;;;;;;10461339;28;20205;-79
2021/05/24 05:50:01;;;;;;;1.90;1.80;;;13.00;86.00;;;;;;10460038;28;20296;-78
2021/05/24 05:55:04;;;;;;;2.87;2.40;;;13.20;85.20;;;;;;10460222;28;20201;-79
2021/05/24 06:00:07;;;;;;;3.43;2.53;;;13.30;86.70;;;;;;10461659;28;20224;-79
2021/05/24 06:05:14;;;;;;;3.13;2.80;;;13.40;87.10;;;;;;10458993;28;20233;-77
2021/05/24 06:10:17;;;;;;;3.50;3.20;;;13.50;85.20;;;;;;10459160;28;20249;-78
2021/05/24 06:15:19;;;;;;;2.80;2.60;;;13.60;85.60;;;;;;10465655;28;20758;-79
2021/05/24 06:20:20;;;;;;;2.73;2.53;;;13.80;84.90;;;;;;10463843;28;20700;-79
2021/05/24 06:25:23;;;;;;;3.87;2.57;;;13.90;84.80;;;;;;10461952;28;20229;-78
2021/05/24 06:30:24;;;;;;;3.73;2.67;;;14.00;84.20;;;;;;10457275;28;20256;-77
2021/05/24 06:35:26;;;;;;;2.40;2.30;;;14.30;83.90;;;;;;10457065;28;20197;-79
2021/05/24 06:40:30;;;;;;;1.83;1.73;;;14.50;82.40;;;;;;10458939;28;20221;-79
2021/05/24 06:45:32;;;;;;;2.03;1.90;;;14.70;80.90;;;;;;10457870;28;20197;-78
2021/05/24 06:50:34;;;;;;;2.90;2.20;;;14.80;80.20;;;;;;10441410;28;20288;-77
2021/05/24 06:55:37;;;;;;;2.20;2.00;;;15.00;79.30;;;;;;10458327;28;20335;-79
2021/05/24 07:00:38;;;;;;;2.17;2.07;;;15.20;79.00;;;;;;10457984;28;20303;-79
2021/05/24 07:05:40;;;;;;;1.90;1.80;;;15.30;78.10;;;;;;10458842;28;20204;-79
2021/05/24 07:10:42;;;;;;;2.33;2.00;;;15.50;78.10;;;;;;10441739;28;20759;-79
2021/05/24 07:15:44;;;;;;;1.97;1.87;;;15.70;77.20;;;;;;10457968;28;20255;-79
2021/05/24 07:20:46;;;;;;;2.40;2.20;;;16.00;78.20;;;;;;10458560;28;20655;-79
2021/05/24 07:25:48;;;;;;;2.70;2.50;;;16.30;77.40;;;;;;10458329;28;20240;-77
2021/05/24 07:30:50;;;;;;;3.83;2.70;;;16.50;75.60;;;;;;10441183;28;20224;-79
2021/05/24 07:35:52;;;;;;;3.70;3.03;;;16.60;76.40;;;;;;10474214;28;20212;-78
2021/05/24 07:40:55;;;;;;;3.07;2.80;;;16.80;77.20;;;;;;10458793;28;20279;-79
2021/05/24 07:45:56;;;;;;;3.57;2.80;;;16.90;76.30;;;;;;10458549;28;20259;-79
2021/05/24 07:51:00;;;;;;;4.07;3.13;;;17.00;76.80;;;;;;10458367;28;20252;-79
2021/05/24 07:56:05;;;;;;;3.00;2.80;;;17.10;77.60;;;;;;10457753;28;20221;-79
2021/05/24 08:01:07;;;;;;;2.63;2.43;;;17.10;76.60;;;;;;10457616;28;20236;-79
2021/05/24 08:06:09;;;;;;;2.73;2.53;;;17.10;75.70;;;;;;10457971;28;20197;-79
2021/05/24 08:11:14;;;;;;;1.90;1.80;;;16.90;75.70;;;;;;10460465;28;20275;-78
2021/05/24 08:16:16;;;;;;;1.70;1.60;;;16.90;75.00;;;;;;10464602;28;20664;-79
2021/05/24 08:21:19;;;;;;;1.57;1.47;;;17.00;73.60;;;;;;10467003;28;20249;-78
2021/05/24 08:26:21;;;;;;;1.83;1.70;;;17.10;71.10;;;;;;10455461;28;20201;-79
2021/05/24 08:31:23;;;;;;;1.50;1.40;;;17.40;73.20;;;;;;10464893;28;20712;-79
2021/05/24 08:36:25;;;;;;;1.60;1.50;;;17.70;72.30;;;;;;10463979;28;20209;-78
2021/05/24 08:41:27;;;;;;;2.60;1.37;;;18.20;71.40;;;;;;10464031;28;20708;-79
2021/05/24 08:46:29;;;;;;;2.80;1.80;;;18.50;69.70;;;;;;10462292;28;20435;-79
2021/05/24 08:51:30;;;;;;;4.53;1.90;;;18.70;71.00;;;;;;10462446;28;20282;-80
2021/05/24 08:56:33;;;;;;;2.27;1.90;;;19.10;67.30;;;;;;10462499;28;20218;-79
2021/05/24 09:01:35;;;;;;;1.70;1.60;;;19.70;68.40;;;;;;10461489;28;20225;-79
2021/05/24 09:06:41;;;;;;;2.20;2.00;;;20.20;66.40;;;;;;10461177;28;20526;-79
2021/05/24 09:11:44;;;;;;;1.90;1.80;;;20.50;66.30;;;;;;10461858;28;20251;-79
2021/05/24 09:16:54;;;;;;;1.33;1.23;;;20.80;64.80;;;;;;10458252;28;20245;-78
2021/05/24 09:21:58;;;;;;;1.87;1.53;;;20.90;62.40;;;;;;10457943;28;20224;-77
2021/05/24 09:27:04;;;;;;;1.30;1.20;;;21.00;64.80;;;;;;10458643;28;20208;-78
2021/05/24 09:32:16;;;;;;;1.20;1.10;;;21.10;63.80;;;;;;10455316;28;20217;-79
2021/05/24 09:37:31;;;;;;;1.63;1.53;;;21.20;63.10;;;;;;10453688;28;20213;-79
2021/05/24 09:42:43;;;;;;;1.40;1.30;;;21.40;63.80;;;;;;10454797;28;20212;-78
2021/05/24 09:47:49;;;;;;;1.60;1.50;;;21.50;63.40;;;;;;10457456;28;20251;-79
2021/05/24 09:52:50;;;;;;;1.40;1.30;;;21.50;60.30;;;;;;10439582;28;20225;-78
2021/05/24 09:57:55;;;;;;;1.23;1.20;;;21.40;62.60;;;;;;10438595;28;20723;-78
2021/05/24 10:02:58;;;;;;;1.50;1.40;;;21.50;62.70;;;;;;10465494;23;20701;-79
2021/05/24 10:08:00;;;;;;;1.33;1.33;;;21.70;63.10;;;;;;10444218;28;20193;-79
2021/05/24 10:13:03;;;;;;;1.83;1.40;;;21.80;59.90;;;;;;10407858;28;20667;-80
2021/05/24 10:18:08;;;;;;;1.07;1.03;;;21.70;58.10;;;;;;10408115;28;20221;-79
2021/05/24 10:23:09;;;;;;;1.10;1.10;;;21.60;56.90;;;;;;10411619;28;20317;-78
2021/05/24 10:28:12;;;;;;;1.50;1.40;;;21.40;57.80;;;;;;10411258;28;20225;-79
2021/05/24 10:33:14;;;;;;;4.10;2.20;;;21.30;58.20;;;;;;10411938;28;20632;-80
2021/05/24 10:38:29;;;;;;;1.33;1.23;;;21.30;62.00;;;;;;10412718;28;20218;-79
2021/05/24 10:43:46;;;;;;;1.30;1.13;;;21.20;59.30;;;;;;10414091;28;20259;-79
2021/05/24 10:48:54;;;;;;;1.20;1.10;;;21.10;59.80;;;;;;10413951;28;20221;-79
2021/05/24 10:54:05;;;;;;;1.40;1.20;;;21.00;58.20;;;;;;10414261;28;20284;-79
2021/05/24 10:59:47;;;;;;;1.33;1.30;;;20.90;59.40;;;;;;10412534;28;20305;-79
2021/05/24 11:04:51;;;;;;;1.40;1.30;;;20.80;61.20;;;;;;10411977;28;20232;-78
2021/05/24 11:09:53;;;;;;;2.50;1.50;;;20.80;58.60;;;;;;10411496;28;20230;-79
2021/05/24 11:15:09;;;;;;;1.63;1.53;;;20.80;59.40;;;;;;10411484;28;20654;-79
2021/05/24 11:20:27;;;;;;;1.30;1.20;;;20.70;57.80;;;;;;10411155;28;20224;-80
2021/05/24 11:31:08;;;;;;;1.70;1.60;;;20.80;60.60;;;;;;10410984;28;20221;-79
2021/05/24 11:36:12;;;;;;;1.73;1.60;;;21.10;62.20;;;;;;10410981;28;20217;-79
2021/05/24 11:41:16;;;;;;;1.20;1.10;;;21.30;59.40;;;;;;10411331;28;20221;-79
2021/05/24 11:46:18;;;;;;;1.13;1.13;;;21.30;59.30;;;;;;10410022;28;20202;-79
2021/05/24 11:51:33;;;;;;;1.30;1.20;;;21.40;58.40;;;;;;10411938;28;20224;-79
2021/05/24 11:56:43;;;;;;;1.30;1.20;;;21.30;56.40;;;;;;10417102;28;20756;-79
2021/05/24 12:01:47;;;;;;;2.10;1.90;;;21.30;56.00;;;;;;10409248;28;20254;-79
2021/05/24 12:06:51;;;;;;;1.43;1.33;;;21.40;55.80;;;;;;10411928;28;20280;-79
2021/05/24 12:11:54;;;;;;;1.33;1.23;;;21.40;56.90;;;;;;10409484;28;20296;-79
2021/05/24 12:16:57;;;;;;;1.40;1.40;;;21.40;56.00;;;;;;10405434;28;20206;-79
2021/05/24 12:22:02;;;;;;;1.40;1.30;;;21.60;57.50;;;;;;10389509;28;20362;-79
2021/05/24 12:27:05;;;;;;;1.60;1.50;;;21.60;56.50;;;;;;10391831;28;20239;-79
2021/05/24 12:32:08;;;;;;;1.10;1.10;;;21.60;56.00;;;;;;10390559;28;20701;-80
2021/05/24 12:37:13;;;;;;;1.43;1.33;;;21.40;58.20;;;;;;10389548;28;20249;-79
2021/05/24 12:42:16;;;;;;;1.20;1.20;;;21.30;56.80;;;;;;10390038;28;20301;-79
2021/05/24 12:47:20;;;;;;;1.43;1.40;;;21.30;55.70;;;;;;10389207;28;20319;-79
2021/05/24 12:52:22;;;;;;;1.30;1.30;;;21.30;57.10;;;;;;10392057;28;20253;-79
2021/05/24 12:57:30;;;;;;;1.50;1.40;;;21.40;57.00;;;;;;10389690;28;20238;-79
2021/05/24 13:02:33;;;;;;;2.13;1.53;;;21.40;57.80;;;;;;10390831;28;20229;-79
2021/05/24 13:07:45;;;;;;;2.03;1.33;;;21.40;56.70;;;;;;10389117;28;20594;-79
2021/05/24 13:12:48;;;;;;;1.40;1.30;;;21.40;56.60;;;;;;10409406;28;20224;-79
2021/05/24 13:17:56;;;;;;;1.30;1.20;;;21.30;56.10;;;;;;10411232;28;20579;-79
2021/05/24 13:28:37;;;;;;;1.77;1.67;;;21.00;59.40;;;;;;10416204;28;20204;-79
2021/05/24 13:33:42;;;;;;;1.50;1.40;;;21.10;57.40;;;;;;10416451;28;20283;-79
2021/05/24 13:39:00;;;;;;;1.50;1.40;;;21.20;56.90;;;;;;10414568;28;20271;-79
2021/05/24 13:44:04;;;;;;;1.43;1.33;;;21.30;57.40;;;;;;10416361;28;20288;-79
2021/05/24 13:49:08;;;;;;;2.70;1.40;;;21.30;57.80;;;;;;10415048;28;20190;-79
2021/05/24 13:54:11;;;;;;;1.30;1.20;;;21.30;56.90;;;;;;10392690;28;20658;-80
2021/05/24 13:59:12;;;;;;;3.00;1.90;;;21.20;58.10;;;;;;10415689;28;20666;-79
2021/05/24 14:04:16;;;;;;;1.50;1.40;;;21.20;57.40;;;;;;10409028;28;20792;-79
2021/05/24 14:09:18;;;;;;;1.37;1.23;;;21.10;56.30;;;;;;10413785;28;20213;-79
2021/05/24 14:14:20;;;;;;;2.27;1.40;;;21.00;54.50;;;;;;10410153;28;20581;-80
2021/05/24 14:19:22;;;;;;;1.47;1.37;;;20.90;56.30;;;;;;10422426;28;20233;-79
2021/05/24 14:24:24;;;;;;;1.10;1.10;;;20.90;54.40;;;;;;10408627;28;20673;-79
2021/05/24 14:29:25;;;;;;;2.03;1.40;;;20.90;55.50;;;;;;10413265;28;20213;-78
2021/05/24 14:34:29;;;;;;;1.20;1.20;;;21.00;56.80;;;;;;10409285;28;20226;-79
2021/05/24 14:39:30;;;;;;;1.20;1.20;;;21.10;55.00;;;;;;10413350;28;20759;-80
2021/05/24 14:44:32;;;;;;;1.30;1.20;;;21.10;55.30;;;;;;10413933;28;20198;-79
2021/05/24 14:49:35;;;;;;;2.10;1.03;;;21.10;56.00;;;;;;10405749;28;20217;-79
2021/05/24 14:54:37;;;;;;;1.30;1.20;;;21.00;53.30;;;;;;10413773;28;20296;-79
2021/05/24 14:59:39;;;;;;;1.67;1.13;;;20.80;53.10;;;;;;10403778;28;20785;-78
2021/05/24 15:04:41;;;;;;;1.47;1.37;;;20.70;52.10;;;;;;10411361;28;20193;-77
2021/05/24 15:09:43;;;;;;;1.40;1.30;;;20.70;51.50;;;;;;10410130;28;20252;-77
2021/05/24 15:14:45;;;;;;;1.70;1.57;;;20.60;53.10;;;;;;10408101;28;20582;-77
2021/05/24 15:19:47;;;;;;;1.30;1.20;;;20.60;53.00;;;;;;10406916;28;20710;-77
2021/05/24 15:24:51;;;;;;;1.90;1.33;;;20.40;53.50;;;;;;10405441;28;20289;-77
2021/05/24 15:29:52;;;;;;;1.40;1.30;;;20.30;52.70;;;;;;10408188;28;20213;-77
2021/05/24 15:34:57;;;;;;;1.70;1.60;;;20.20;54.20;;;;;;10407884;28;20214;-77
2021/05/24 15:39:59;;;;;;;1.23;1.13;;;20.10;53.20;;;;;;10390365;28;20218;-77
2021/05/24 15:45:01;;;;;;;4.70;3.10;;;20.10;52.60;;;;;;10406290;28;20252;-77
2021/05/24 15:50:05;;;;;;;2.90;2.23;;;20.00;53.70;;;;;;10409653;28;20221;-77
2021/05/24 15:55:09;;;;;;;1.50;1.40;;;19.90;54.30;;;;;;10400447;28;20205;-77
2021/05/24 16:00:13;;;;;;;1.37;1.27;;;19.90;54.40;;;;;;10450643;22;20225;-79
2021/05/24 16:05:16;;;;;;;2.20;1.47;;;19.80;54.80;;;;;;10468471;28;20212;-80
2021/05/24 16:10:17;;;;;;;2.60;2.27;;;19.80;57.00;;;;;;10468883;28;20220;-79
2021/05/24 16:15:19;;;;;;;1.80;1.70;;;19.70;58.30;;;;;;10469673;28;20762;-79
2021/05/24 16:20:22;;;;;;;2.70;2.50;;;19.70;58.00;;;;;;10467844;28;20275;-79
2021/05/24 16:25:32;;;;;;;1.60;1.50;;;19.60;58.30;;;;;;10457819;28;20193;-79
2021/05/24 16:30:35;;;;;;;2.20;1.57;;;19.40;58.00;;;;;;10450113;28;20327;-80
2021/05/24 16:35:39;;;;;;;1.90;1.80;;;19.30;58.90;;;;;;10454573;28;20189;-80
2021/05/24 16:40:43;;;;;;;2.03;1.50;;;19.10;59.00;;;;;;10448071;28;20308;-79
2021/05/24 16:45:44;;;;;;;2.37;1.60;;;19.00;59.60;;;;;;10451236;28;20200;-79
2021/05/24 16:50:48;;;;;;;2.37;2.00;;;18.90;60.60;;;;;;10457386;28;20251;-79
2021/05/24 16:55:50;;;;;;;2.33;1.40;;;18.80;60.90;;;;;;10455895;28;20216;-79
2021/05/24 17:00:51;;;;;;;1.47;1.30;;;18.60;61.80;;;;;;10453881;28;20221;-79
2021/05/24 17:05:54;;;;;;;1.40;1.30;;;18.50;62.20;;;;;;10441760;28;20205;-79
2021/05/24 17:10:56;;;;;;;1.60;1.50;;;18.30;63.50;;;;;;10459816;28;20217;-79
2021/05/24 17:15:57;;;;;;;2.00;1.63;;;18.20;64.60;;;;;;10460882;28;20201;-79
2021/05/24 17:21:00;;;;;;;1.63;1.53;;;18.10;64.40;;;;;;10461078;28;20798;-79
2021/05/24 17:26:02;;;;;;;2.60;1.70;;;18.00;65.80;;;;;;10459604;28;20209;-79
2021/05/24 17:31:03;;;;;;;2.70;1.43;;;17.90;66.50;;;;;;10460911;28;20247;-79
2021/05/24 17:36:06;;;;;;;1.50;1.40;;;17.80;67.20;;;;;;10460369;28;20227;-79
2021/05/24 17:41:09;;;;;;;5.27;1.97;;;17.70;68.40;;;;;;10457228;28;20232;-78
2021/05/24 17:46:11;;;;;;;2.63;1.97;;;17.60;68.20;;;;;;10456162;28;20197;-78
2021/05/24 17:51:19;;;;;;;2.30;1.63;;;17.40;68.60;;;;;;10465812;28;20295;-79
2021/05/24 17:56:21;;;;;;;2.00;1.90;;;17.40;68.90;;;;;;10456573;28;20209;-79
2021/05/24 18:01:23;;;;;;;2.17;1.77;;;17.20;69.30;;;;;;10456268;28;20233;-79
2021/05/24 18:06:25;;;;;;;1.70;1.60;;;17.20;71.00;;;;;;10458085;28;20201;-78
2021/05/24 18:11:27;;;;;;;3.47;2.10;;;17.20;71.80;;;;;;10458623;28;20700;-79
2021/05/24 18:16:29;;;;;;;2.83;2.00;;;17.10;71.60;;;;;;10455050;28;20669;-79
2021/05/24 18:21:31;;;;;;;3.07;1.97;;;17.00;74.20;;;;;;10457518;28;20253;-79
2021/05/24 18:26:33;;;;;;;2.27;2.10;;;16.90;76.50;;;;;;10456869;28;20250;-79
2021/05/24 18:31:37;;;;;;;2.30;2.10;;;16.90;79.50;;;;;;10458293;28;20221;-79
2021/05/24 18:36:41;;;;;;;2.67;2.47;;;16.80;79.10;;;;;;10453288;28;20620;-78
2021/05/24 18:41:43;;;;;;;2.40;2.30;;;16.70;79.50;;;;;;10449754;28;20221;-78
2021/05/24 18:46:45;;;;;;;5.27;3.87;;;16.60;79.30;;;;;;10453557;28;20197;-78
2021/05/24 18:51:49;;;;;;;3.00;2.47;;;16.60;81.10;;;;;;10452558;28;20303;-78
2021/05/24 18:56:51;;;;;;;2.27;2.07;;;16.50;82.50;;;;;;10453888;28;20209;-78
2021/05/24 19:01:54;;;;;;;2.87;2.60;;;16.50;81.90;;;;;;10452352;28;20629;-78
2021/05/24 19:06:59;;;;;;;3.00;2.70;;;16.50;80.80;;;;;;10452905;28;20263;-78
2021/05/24 19:12:01;;;;;;;2.63;2.43;;;16.40;79.80;;;;;;10454253;28;20596;-79
2021/05/24 19:17:06;;;;;;;3.70;2.83;;;16.40;79.00;;;;;;10455870;28;20221;-79
2021/05/24 19:22:08;;;;;;;2.67;2.47;;;16.10;80.40;;;;;;10454080;28;20328;-78
2021/05/24 19:27:10;;;;;;;2.83;2.37;;;16.00;80.90;;;;;;10453518;28;20212;-79
2021/05/24 19:32:13;;;;;;;2.10;1.70;;;15.90;80.80;;;;;;10452784;28;20315;-79
2021/05/24 19:37:16;;;;;;;2.13;1.93;;;15.90;80.90;;;;;;10453209;28;20209;-78
2021/05/24 19:42:18;;;;;;;2.27;2.07;;;15.80;81.40;;;;;;10454878;28;20983;-79
2021/05/24 19:47:28;;;;;;;2.40;2.20;;;15.70;81.60;;;;;;10454160;28;20275;-78
2021/05/24 20:24:35;;;;;;;3.53;2.40;;;15.30;81.80;;;;;;10460650;28;20239;-78
2021/05/24 20:29:37;;;;;;;2.73;2.47;;;15.10;82.10;;;;;;10464701;28;20229;-78
2021/05/24 20:34:39;;;;;;;2.20;2.10;;;15.00;84.20;;;;;;10467631;28;20208;-78
2021/05/24 20:39:42;;;;;;;1.70;1.60;;;15.00;83.40;;;;;;10462908;28;20228;-77
2021/05/24 20:44:43;;;;;;;2.50;1.00;;;15.10;77.90;;;;;;10461431;28;20255;-78
2021/05/24 20:49:45;;;;;;;1.03;1.03;;;15.20;75.70;;;;;;10459596;28;20236;-78
2021/05/24 20:54:47;;;;;;;1.10;1.00;;;15.20;72.40;;;;;;10460827;28;20608;-78
2021/05/24 20:59:50;;;;;;;5.50;1.20;;;15.30;70.10;;;;;;10459296;28;20225;-77
2021/05/24 21:04:52;;;;;;;1.00;0.90;;;15.30;78.90;;;;;;10460817;28;20208;-78
2021/05/24 21:09:55;;;;;;;1.57;1.13;;;14.90;83.10;;;;;;10456414;28;20209;-78
2021/05/24 21:14:57;;;;;;;1.43;1.33;;;14.50;86.00;;;;;;10461948;28;20197;-78
2021/05/24 21:19:59;;;;;;;0.87;0.87;;;14.10;87.70;;;;;;10467244;28;20221;-78
2021/05/24 21:25:01;;;;;;;1.20;1.10;;;13.80;88.70;;;;;;10459735;28;20236;-77
2021/05/24 21:30:03;;;;;;;1.80;1.13;;;13.60;88.80;;;;;;10457098;28;20220;-77
2021/05/24 21:35:26;;;;;;;1.00;0.90;;;13.50;88.20;;;;;;10456554;28;20197;-77
2021/05/24 21:40:31;;;;;;;1.20;1.10;;;13.40;87.10;;;;;;10457132;28;20232;-77
2021/05/24 21:45:33;;;;;;;1.27;0.90;;;13.40;88.00;;;;;;10458770;28;20197;-78
2021/05/24 21:50:35;;;;;;;1.10;1.10;;;13.40;86.70;;;;;;10457752;28;20213;-78
2021/05/24 21:55:38;;;;;;;1.90;0.90;;;13.40;87.40;;;;;;10456641;28;20221;-77
2021/05/24 22:00:41;;;;;;;1.27;1.00;;;13.40;85.30;;;;;;10470800;23;20229;-76
2021/05/24 22:05:43;;;;;;;1.03;1.00;;;13.50;87.10;;;;;;10413962;28;20197;-76
2021/05/24 22:10:46;;;;;;;1.10;1.00;;;13.50;86.30;;;;;;10396679;28;20598;-76
2021/05/24 22:15:48;;;;;;;2.37;1.17;;;13.60;86.70;;;;;;10411595;28;20197;-75
2021/05/24 22:20:50;;;;;;;1.20;0.87;;;13.60;85.40;;;;;;10414556;28;20271;-75
2021/05/24 22:25:52;;;;;;;1.53;1.30;;;13.70;84.20;;;;;;10411601;28;20194;-75
2021/05/24 22:30:54;;;;;;;1.10;1.10;;;13.60;81.40;;;;;;10413740;28;20296;-75
2021/05/24 22:35:56;;;;;;;2.13;1.40;;;13.60;83.70;;;;;;10411492;28;20208;-75
2021/05/24 22:40:58;;;;;;;1.73;1.27;;;13.60;83.60;;;;;;10411678;28;20240;-75
2021/05/24 22:46:00;;;;;;;1.37;1.20;;;13.60;83.10;;;;;;10411039;28;20289;-75
2021/05/24 22:51:02;;;;;;;1.40;1.30;;;13.60;83.40;;;;;;10412909;28;20225;-76
2021/05/24 22:56:05;;;;;;;1.07;1.00;;;13.60;82.90;;;;;;10411632;28;20198;-76
2021/05/24 23:01:07;;;;;;;0.97;0.97;;;13.60;82.40;;;;;;10409898;28;20226;-75
2021/05/24 23:06:14;;;;;;;2.73;1.20;;;13.60;81.60;;;;;;10410872;28;20212;-75
2021/05/24 23:11:17;;;;;;;1.97;1.27;;;13.60;82.50;;;;;;10407559;28;20332;-75
2021/05/24 23:16:20;;;;;;;1.23;1.23;;;13.60;81.50;;;;;;10410447;28;20201;-75
2021/05/24 23:21:22;;;;;;;1.50;1.10;;;13.60;82.20;;;;;;10411153;28;20221;-75
2021/05/24 23:26:24;;;;;;;1.40;1.30;;;13.60;82.90;;;;;;10410360;28;20209;-75
2021/05/24 23:31:26;;;;;;;1.67;1.20;;;13.60;83.10;;;;;;10410346;28;20286;-75
2021/05/24 23:36:28;;;;;;;2.33;1.27;;;13.60;81.00;;;;;;10411851;28;20198;-75
2021/05/24 23:41:30;;;;;;;1.30;1.20;;;13.50;81.70;;;;;;10411077;28;20221;-75
2021/05/24 23:46:32;;;;;;;1.40;1.30;;;13.50;83.80;;;;;;10410778;28;20284;-76
2021/05/24 23:51:33;;;;;;;1.20;1.10;;;13.40;82.90;;;;;;10410865;28;20703;-76
2021/05/24 23:56:36;;;;;;;1.80;1.50;;;13.30;81.60;;;;;;10410024;28;20230;-76
